Withamsville, Ohio
Current Conditions -  °F | °C
As of 12:53 PM on Thursday 30 Oct 2014 (Local Time) from KLUK Reporting Station
Clear Clear  
Wind Chill: 52°   Ceiling: Unl
Heat Index: 52°   Visibility: 10mi
Dew Point: 34°   Wind: 5mph
Humidity: 50%   Direction: 240°WSW
Pressure: 30.15"   Gusts: NA
Location:  39.0659°N, 84.278°W
Report Text: KLUK 301653Z 24004KT 10SM CLR 11/01 A3015 RMK AO2 SLP212 T01110011
Loading
Personal Weather Stations






























Interactive Weather Map
Tropical Storm Tracking
New forecast layout! Learn more

10-Day Weather Forecast

Advertisements
Track Severe Weather on mobile